Time;durP1;ratioP1;P1;durP2;ratioP2;P2;SDS_P1;SDS_P2;PMS_P1;PMS_P2;Temp;Humidity;BMP_temperature;BMP_pressure;BME280_temperature;BME280_humidity;BME280_pressure;Samples;Min_cycle;Max_cycle;Signal;HPM_P1;HPM_P2
2023/05/09 00:01:48;;;;;;;;;;;15.80;99.90;;;;;;5036694;28;20376;-68
2023/05/09 00:04:15;;;;;;;;;;;15.70;99.90;;;;;;5037486;28;19940;-68
2023/05/09 00:06:44;;;;;;;;;;;15.70;99.90;;;;;;5059522;28;19960;-68
2023/05/09 00:09:11;;;;;;;;;;;15.60;99.90;;;;;;5037611;28;19978;-68
2023/05/09 00:11:37;;;;;;;;;;;15.60;99.90;;;;;;5080580;22;20307;-68
2023/05/09 00:14:04;;;;;;;;;;;15.60;99.90;;;;;;5062072;28;20404;-67
2023/05/09 00:16:31;;;;;;;;;;;15.60;99.90;;;;;;5064478;28;20405;-68
2023/05/09 00:18:58;;;;;;;;;;;15.60;99.90;;;;;;5065605;28;20445;-68
2023/05/09 00:21:25;;;;;;;;;;;15.60;99.90;;;;;;5059211;28;19970;-67
2023/05/09 00:23:53;;;;;;;;;;;15.60;99.90;;;;;;5055524;28;19928;-68
2023/05/09 00:26:20;;;;;;;;;;;15.60;99.90;;;;;;5047627;28;19932;-68
2023/05/09 00:28:47;;;;;;;;;;;15.60;99.90;;;;;;5060263;28;19979;-68
2023/05/09 00:31:14;;;;;;;;;;;15.60;99.90;;;;;;5046509;28;19929;-67
2023/05/09 00:33:41;;;;;;;;;;;15.60;99.90;;;;;;5055013;28;19929;-67
2023/05/09 00:36:08;;;;;;;;;;;15.60;99.90;;;;;;5054894;28;19931;-68
2023/05/09 00:38:35;;;;;;;;;;;15.60;99.90;;;;;;5054103;28;19925;-68
2023/05/09 00:41:03;;;;;;;;;;;15.60;99.90;;;;;;5050700;28;19932;-68
2023/05/09 00:43:30;;;;;;;;;;;15.70;99.90;;;;;;5058538;28;19932;-68
2023/05/09 00:45:57;;;;;;;;;;;15.70;99.90;;;;;;5060757;28;19928;-68
2023/05/09 00:48:23;;;;;;;;;;;15.70;99.90;;;;;;5065390;28;19947;-68
2023/05/09 00:50:51;;;;;;;;;;;15.70;99.90;;;;;;5048266;28;19924;-68
2023/05/09 00:53:18;;;;;;;;;;;15.70;99.90;;;;;;5050286;28;20380;-67
2023/05/09 00:55:45;;;;;;;;;;;15.70;99.90;;;;;;5056869;28;19983;-68
2023/05/09 00:58:13;;;;;;;;;;;15.70;99.90;;;;;;5054688;28;19995;-67
2023/05/09 01:00:40;;;;;;;;;;;15.60;99.90;;;;;;5050393;28;19933;-68
2023/05/09 01:03:07;;;;;;;;;;;15.60;99.90;;;;;;5060784;28;19929;-68
2023/05/09 01:05:38;;;;;;;;;;;15.50;99.90;;;;;;5059320;28;19931;-68
2023/05/09 01:08:07;;;;;;;;;;;15.60;99.90;;;;;;5058856;28;19983;-68
2023/05/09 01:10:37;;;;;;;;;;;15.60;99.90;;;;;;5052193;28;19929;-68
2023/05/09 01:13:05;;;;;;;;;;;15.60;99.90;;;;;;5058224;28;19933;-68
2023/05/09 01:15:37;;;;;;;;;;;15.60;99.90;;;;;;5054483;28;19939;-68
2023/05/09 01:18:06;;;;;;;;;;;15.50;99.90;;;;;;5049965;28;19924;-68
2023/05/09 01:20:34;;;;;;;;;;;15.50;99.90;;;;;;5065376;28;19925;-69
2023/05/09 01:23:12;;;;;;;;;;;15.50;99.90;;;;;;5054575;28;19933;-69
2023/05/09 01:25:51;;;;;;;;;;;15.50;99.90;;;;;;5042998;28;19963;-69
2023/05/09 01:28:23;;;;;;;;;;;15.50;99.90;;;;;;5044856;28;20407;-68
2023/05/09 01:30:51;;;;;;;;;;;15.40;99.90;;;;;;5055157;28;19924;-68
2023/05/09 01:33:19;;;;;;;;;;;15.40;99.90;;;;;;5060750;28;19990;-68
2023/05/09 01:35:49;;;;;;;;;;;15.40;99.90;;;;;;5053385;28;19925;-68
2023/05/09 01:38:18;;;;;;;;;;;15.40;99.90;;;;;;5052775;28;20357;-69
2023/05/09 01:40:47;;;;;;;;;;;15.40;99.90;;;;;;5053019;28;19971;-67
2023/05/09 01:43:16;;;;;;;;;;;15.50;99.90;;;;;;5057030;28;19925;-69
2023/05/09 01:45:44;;;;;;;;;;;15.50;99.90;;;;;;5050245;28;20001;-68
2023/05/09 01:48:13;;;;;;;;;;;15.50;99.90;;;;;;5049745;28;19963;-68
2023/05/09 01:50:40;;;;;;;;;;;15.50;99.90;;;;;;5053401;28;19925;-68
2023/05/09 01:53:08;;;;;;;;;;;15.50;99.90;;;;;;5048443;28;19944;-69
2023/05/09 01:55:36;;;;;;;;;;;15.50;99.90;;;;;;5053177;28;19928;-68
2023/05/09 01:58:03;;;;;;;;;;;15.50;99.90;;;;;;5052959;28;19940;-69
2023/05/09 02:00:30;;;;;;;;;;;15.40;99.90;;;;;;5057599;28;19943;-69
2023/05/09 02:02:57;;;;;;;;;;;15.50;99.90;;;;;;5055525;28;20400;-69
2023/05/09 02:05:27;;;;;;;;;;;15.50;99.90;;;;;;5055083;28;20362;-68
2023/05/09 02:07:56;;;;;;;;;;;15.50;99.90;;;;;;5057174;28;19925;-69
2023/05/09 02:10:24;;;;;;;;;;;15.40;99.90;;;;;;5055896;28;19933;-69
2023/05/09 02:12:51;;;;;;;;;;;15.40;99.90;;;;;;5054110;28;19932;-68
2023/05/09 02:15:18;;;;;;;;;;;15.40;99.90;;;;;;5056170;28;19928;-68
2023/05/09 02:17:45;;;;;;;;;;;15.40;99.90;;;;;;5054212;28;19932;-69
2023/05/09 02:20:12;;;;;;;;;;;15.30;99.90;;;;;;5064969;28;19960;-69
2023/05/09 02:22:41;;;;;;;;;;;15.30;99.90;;;;;;5056973;28;19924;-69
2023/05/09 02:25:09;;;;;;;;;;;15.30;99.90;;;;;;5056969;28;19933;-68
2023/05/09 02:27:38;;;;;;;;;;;15.40;99.90;;;;;;5056779;28;19971;-69
2023/05/09 02:30:07;;;;;;;;;;;15.30;99.90;;;;;;5061173;28;19987;-68
2023/05/09 02:32:35;;;;;;;;;;;15.30;99.90;;;;;;5056541;28;19960;-68
2023/05/09 02:35:03;;;;;;;;;;;15.30;99.90;;;;;;5052618;28;19932;-68
2023/05/09 02:37:30;;;;;;;;;;;15.30;99.90;;;;;;5055423;28;20027;-68
2023/05/09 02:39:58;;;;;;;;;;;15.30;99.90;;;;;;5062687;28;19967;-68
2023/05/09 02:42:29;;;;;;;;;;;15.30;99.90;;;;;;5056919;28;19968;-69
2023/05/09 02:44:56;;;;;;;;;;;15.30;99.90;;;;;;5058991;28;19932;-69
2023/05/09 02:47:23;;;;;;;;;;;15.30;99.90;;;;;;5053535;28;19939;-68
2023/05/09 02:49:49;;;;;;;;;;;15.30;99.90;;;;;;5066965;28;19939;-68
2023/05/09 02:52:16;;;;;;;;;;;15.30;99.90;;;;;;5055412;28;19990;-68
2023/05/09 02:54:43;;;;;;;;;;;15.20;99.90;;;;;;5052649;28;20023;-68
2023/05/09 02:57:11;;;;;;;;;;;15.20;99.90;;;;;;5059746;28;19995;-69
2023/05/09 02:59:38;;;;;;;;;;;15.10;99.90;;;;;;5049076;28;19928;-68
2023/05/09 03:02:05;;;;;;;;;;;15.10;99.90;;;;;;5057660;28;19936;-68
2023/05/09 03:04:32;;;;;;;;;;;15.10;99.90;;;;;;5058321;28;19940;-68
2023/05/09 03:06:59;;;;;;;;;;;15.20;99.90;;;;;;5051398;28;20388;-68
2023/05/09 03:09:31;;;;;;;;;;;15.20;99.90;;;;;;5057627;28;20413;-69
2023/05/09 03:11:57;;;;;;;;;;;15.20;99.90;;;;;;5052070;28;19974;-69
2023/05/09 03:14:26;;;;;;;;;;;15.30;99.90;;;;;;5053873;28;19931;-69
2023/05/09 03:16:54;;;;;;;;;;;15.30;99.90;;;;;;5059126;28;19932;-69
2023/05/09 03:19:26;;;;;;;;;;;15.30;99.90;;;;;;5058751;28;19928;-68
2023/05/09 03:21:53;;;;;;;;;;;15.40;99.90;;;;;;5059484;28;19951;-68
2023/05/09 03:24:22;;;;;;;;;;;15.40;99.90;;;;;;5050595;28;19925;-68
2023/05/09 03:26:48;;;;;;;;;;;15.40;99.90;;;;;;5058345;28;19929;-68
2023/05/09 03:29:15;;;;;;;;;;;15.40;99.90;;;;;;5056695;28;19939;-68
2023/05/09 03:31:43;;;;;;;;;;;15.40;99.90;;;;;;5051964;28;19924;-68
2023/05/09 03:34:13;;;;;;;;;;;15.40;99.90;;;;;;5053439;28;19925;-68
2023/05/09 03:36:42;;;;;;;;;;;15.40;99.90;;;;;;5054375;28;19936;-68
2023/05/09 03:39:10;;;;;;;;;;;15.40;99.90;;;;;;5057808;28;19928;-69
2023/05/09 03:41:40;;;;;;;;;;;15.50;99.90;;;;;;5050304;28;19971;-68
2023/05/09 03:44:07;;;;;;;;;;;15.40;99.90;;;;;;5052444;28;19947;-68
2023/05/09 03:46:34;;;;;;;;;;;15.40;99.90;;;;;;5053101;28;20392;-69
2023/05/09 03:49:03;;;;;;;;;;;15.40;99.90;;;;;;5052296;28;19924;-68
2023/05/09 03:51:31;;;;;;;;;;;15.40;99.90;;;;;;5055318;28;20312;-68
2023/05/09 03:54:00;;;;;;;;;;;15.40;99.90;;;;;;5054472;28;20400;-69
2023/05/09 03:56:27;;;;;;;;;;;15.40;99.90;;;;;;5051080;28;19925;-69
2023/05/09 03:58:54;;;;;;;;;;;15.40;99.90;;;;;;5046903;28;19932;-68
2023/05/09 04:01:20;;;;;;;;;;;15.40;99.90;;;;;;5062254;28;19985;-68
2023/05/09 04:03:48;;;;;;;;;;;15.40;99.90;;;;;;5050881;28;19963;-68
2023/05/09 04:06:17;;;;;;;;;;;15.40;99.90;;;;;;5054324;28;19924;-68
2023/05/09 04:08:44;;;;;;;;;;;15.40;99.90;;;;;;5053225;28;20296;-68
2023/05/09 04:11:12;;;;;;;;;;;15.40;99.90;;;;;;5054708;28;19925;-68
2023/05/09 04:13:42;;;;;;;;;;;15.30;99.90;;;;;;5055824;28;19932;-69
2023/05/09 04:16:22;;;;;;;;;;;15.30;99.90;;;;;;5052405;28;19931;-68
2023/05/09 04:18:49;;;;;;;;;;;15.30;99.90;;;;;;5049530;28;19925;-68
2023/05/09 04:21:17;;;;;;;;;;;15.30;99.90;;;;;;5069444;28;19986;-68
2023/05/09 04:23:48;;;;;;;;;;;15.30;99.90;;;;;;5062150;28;19971;-68
2023/05/09 04:26:17;;;;;;;;;;;15.30;99.90;;;;;;5048539;28;19968;-68
2023/05/09 04:28:46;;;;;;;;;;;15.30;99.90;;;;;;5051544;28;19925;-68
2023/05/09 04:31:16;;;;;;;;;;;15.30;99.90;;;;;;5059077;28;19965;-69
2023/05/09 04:33:46;;;;;;;;;;;15.30;99.90;;;;;;5053600;28;19931;-69
2023/05/09 04:36:13;;;;;;;;;;;15.30;99.90;;;;;;5061954;28;19924;-69
2023/05/09 04:38:42;;;;;;;;;;;15.30;99.90;;;;;;5057019;28;19968;-69
2023/05/09 04:41:12;;;;;;;;;;;15.30;99.90;;;;;;5050543;28;20392;-69
2023/05/09 04:43:39;;;;;;;;;;;15.30;99.90;;;;;;5048129;28;19929;-69
2023/05/09 04:46:07;;;;;;;;;;;15.40;99.90;;;;;;5052241;28;19956;-69
2023/05/09 04:48:35;;;;;;;;;;;15.50;99.90;;;;;;5046003;28;19951;-69
2023/05/09 04:51:02;;;;;;;;;;;15.50;99.90;;;;;;5050355;28;19925;-68
2023/05/09 04:53:29;;;;;;;;;;;15.60;99.90;;;;;;5053089;28;19964;-68
2023/05/09 04:55:58;;;;;;;;;;;15.70;99.90;;;;;;5054170;28;20011;-66
2023/05/09 04:58:25;;;;;;;;;;;15.80;99.90;;;;;;5057506;28;20350;-68
2023/05/09 05:00:53;;;;;;;;;;;15.90;99.90;;;;;;5045040;28;19932;-68
2023/05/09 05:03:20;;;;;;;;;;;15.90;99.90;;;;;;5042238;28;20010;-68
2023/05/09 05:05:47;;;;;;;;;;;16.00;99.90;;;;;;5045526;28;20285;-68
2023/05/09 05:08:14;;;;;;;;;;;16.10;99.90;;;;;;5055146;28;20067;-68
2023/05/09 05:10:42;;;;;;;;;;;16.20;99.90;;;;;;5047448;28;19925;-68
2023/05/09 05:13:13;;;;;;;;;;;16.30;99.90;;;;;;5052495;28;19925;-69
2023/05/09 05:15:44;;;;;;;;;;;16.30;99.90;;;;;;5048445;28;19924;-69
2023/05/09 05:18:12;;;;;;;;;;;16.40;99.90;;;;;;5056351;28;19968;-73
2023/05/09 05:20:40;;;;;;;;;;;16.50;99.90;;;;;;5043704;28;19935;-69
2023/05/09 05:23:06;;;;;;;;;;;16.50;99.90;;;;;;5050636;28;19924;-69
2023/05/09 05:25:33;;;;;;;;;;;16.50;99.90;;;;;;5043995;28;19933;-68
2023/05/09 05:28:01;;;;;;;;;;;16.40;99.90;;;;;;5045975;28;19960;-69
2023/05/09 05:30:29;;;;;;;;;;;16.30;99.90;;;;;;5048302;28;20471;-68
2023/05/09 05:32:56;;;;;;;;;;;16.10;99.90;;;;;;5045469;28;19925;-68
2023/05/09 05:35:23;;;;;;;;;;;15.90;99.90;;;;;;5057850;28;19928;-69
2023/05/09 05:37:52;;;;;;;;;;;15.90;99.90;;;;;;5040869;28;19932;-69
2023/05/09 05:40:20;;;;;;;;;;;15.90;99.90;;;;;;5052132;28;19990;-68
2023/05/09 05:42:49;;;;;;;;;;;16.00;99.90;;;;;;5043985;28;19932;-69
2023/05/09 05:45:16;;;;;;;;;;;16.00;99.90;;;;;;5044566;28;20061;-69
2023/05/09 05:47:48;;;;;;;;;;;16.00;99.90;;;;;;5042248;28;20300;-68
2023/05/09 05:50:15;;;;;;;;;;;16.10;99.90;;;;;;5049606;28;19932;-69
2023/05/09 05:52:42;;;;;;;;;;;16.20;99.90;;;;;;5052623;28;19925;-69
2023/05/09 05:55:13;;;;;;;;;;;16.30;99.90;;;;;;5042816;28;19929;-69
2023/05/09 05:57:40;;;;;;;;;;;16.30;99.90;;;;;;5047053;28;20334;-68
2023/05/09 06:00:10;;;;;;;;;;;16.30;99.90;;;;;;5043029;28;20346;-68
2023/05/09 06:02:46;;;;;;;;;;;16.40;99.90;;;;;;5044388;28;19925;-71
2023/05/09 06:05:21;;;;;;;;;;;;;;;;;;5048088;28;19951;-68
2023/05/09 06:07:49;;;;;;;;;;;16.40;99.90;;;;;;5042234;28;20385;-68
2023/05/09 06:10:16;;;;;;;;;;;16.40;99.90;;;;;;5055378;28;19937;-68
2023/05/09 06:12:45;;;;;;;;;;;16.40;99.90;;;;;;5051332;28;20442;-69
2023/05/09 06:15:12;;;;;;;;;;;16.50;99.90;;;;;;5041969;28;20016;-68
2023/05/09 06:17:42;;;;;;;;;;;16.50;99.90;;;;;;5048735;28;19932;-69
2023/05/09 06:20:09;;;;;;;;;;;16.50;99.90;;;;;;5046293;28;19925;-69
2023/05/09 06:22:36;;;;;;;;;;;16.60;99.90;;;;;;5046538;28;19928;-69
2023/05/09 06:25:05;;;;;;;;;;;16.70;99.90;;;;;;5049290;28;19947;-68
2023/05/09 06:27:32;;;;;;;;;;;16.60;99.90;;;;;;5039350;28;20059;-68
2023/05/09 06:29:58;;;;;;;;;;;16.70;99.90;;;;;;5049176;28;20349;-68
2023/05/09 06:32:25;;;;;;;;;;;16.80;99.90;;;;;;5048939;28;19988;-69
2023/05/09 06:34:52;;;;;;;;;;;16.80;99.90;;;;;;5045911;28;19928;-68
2023/05/09 06:37:19;;;;;;;;;;;16.80;99.90;;;;;;5041505;28;19987;-67
2023/05/09 06:39:46;;;;;;;;;;;16.90;99.90;;;;;;5046202;28;19925;-70
2023/05/09 06:42:14;;;;;;;;;;;17.00;99.90;;;;;;5042806;28;19974;-69
2023/05/09 06:44:43;;;;;;;;;;;17.00;99.90;;;;;;5048366;28;19994;-69
2023/05/09 06:47:10;;;;;;;;;;;17.20;99.90;;;;;;5045839;28;19929;-69
2023/05/09 06:49:37;;;;;;;;;;;17.30;99.90;;;;;;5041928;28;19925;-69
2023/05/09 06:52:04;;;;;;;;;;;17.40;99.90;;;;;;5050533;28;19931;-68
2023/05/09 06:54:31;;;;;;;;;;;17.50;99.90;;;;;;5047208;28;19975;-68
2023/05/09 06:56:57;;;;;;;;;;;17.60;99.90;;;;;;5052722;28;19925;-68
2023/05/09 06:59:25;;;;;;;;;;;17.70;99.90;;;;;;5042092;28;19928;-68
2023/05/09 07:01:52;;;;;;;;;;;17.70;99.90;;;;;;5046627;28;19925;-69
2023/05/09 07:04:19;;;;;;;;;;;17.90;99.90;;;;;;5047961;28;19933;-68
2023/05/09 07:06:46;;;;;;;;;;;17.80;99.90;;;;;;5050058;28;19925;-68
2023/05/09 07:09:14;;;;;;;;;;;17.90;99.90;;;;;;5053252;28;19935;-68
2023/05/09 07:11:40;;;;;;;;;;;18.00;99.90;;;;;;5049680;28;20016;-68
2023/05/09 07:14:07;;;;;;;;;;;17.90;99.90;;;;;;5042952;28;19925;-68
2023/05/09 07:16:35;;;;;;;;;;;17.90;99.90;;;;;;5060165;28;20400;-68
2023/05/09 07:19:02;;;;;;;;;;;18.10;99.90;;;;;;5044615;28;19925;-68
2023/05/09 07:21:29;;;;;;;;;;;18.30;99.90;;;;;;5051158;28;19925;-68
2023/05/09 07:23:56;;;;;;;;;;;18.50;99.90;;;;;;5050209;28;19925;-70
2023/05/09 07:26:22;;;;;;;;;;;18.60;99.90;;;;;;5045146;28;19932;-71
2023/05/09 07:28:49;;;;;;;;;;;18.70;99.90;;;;;;5043643;28;19925;-71
2023/05/09 07:31:16;;;;;;;;;;;18.60;99.90;;;;;;5045647;28;19925;-71
2023/05/09 07:33:44;;;;;;;;;;;18.50;99.90;;;;;;5051453;28;19971;-71
2023/05/09 07:36:13;;;;;;;;;;;18.30;99.90;;;;;;5043990;28;19929;-71
2023/05/09 07:38:40;;;;;;;;;;;18.30;99.90;;;;;;5038498;28;19968;-71
2023/05/09 07:41:07;;;;;;;;;;;18.40;99.90;;;;;;5047248;28;20015;-71
2023/05/09 07:43:33;;;;;;;;;;;18.50;99.90;;;;;;5045704;28;19924;-69
2023/05/09 07:46:00;;;;;;;;;;;18.70;99.90;;;;;;5045654;28;19925;-69
2023/05/09 07:48:27;;;;;;;;;;;18.90;99.90;;;;;;5045351;28;19931;-68
2023/05/09 07:50:55;;;;;;;;;;;19.00;99.90;;;;;;5050563;28;19932;-68
2023/05/09 07:53:22;;;;;;;;;;;19.30;99.90;;;;;;5052208;28;20391;-69
2023/05/09 07:55:49;;;;;;;;;;;19.50;99.90;;;;;;5044430;28;19932;-68
2023/05/09 07:58:15;;;;;;;;;;;19.60;99.90;;;;;;5050118;28;20434;-69
2023/05/09 08:00:42;;;;;;;;;;;19.70;99.90;;;;;;5044483;28;19925;-69
2023/05/09 08:03:09;;;;;;;;;;;19.80;99.90;;;;;;5045607;28;19932;-69
2023/05/09 08:05:36;;;;;;;;;;;19.60;99.90;;;;;;5044701;28;19925;-68
2023/05/09 08:08:04;;;;;;;;;;;19.60;99.90;;;;;;5048972;28;19932;-68
2023/05/09 08:10:32;;;;;;;;;;;19.80;99.90;;;;;;5050789;28;19967;-69
2023/05/09 08:12:59;;;;;;;;;;;19.90;99.90;;;;;;5051244;28;20384;-68
2023/05/09 08:15:25;;;;;;;;;;;20.00;99.90;;;;;;5051975;28;19924;-68
2023/05/09 08:17:52;;;;;;;;;;;20.10;99.90;;;;;;5051208;28;19925;-69
2023/05/09 08:20:19;;;;;;;;;;;20.00;99.90;;;;;;5051927;28;19939;-69
2023/05/09 08:22:46;;;;;;;;;;;20.00;99.90;;;;;;5058054;28;19944;-69
2023/05/09 08:25:17;;;;;;;;;;;20.20;99.90;;;;;;5051910;28;19925;-69
2023/05/09 08:27:43;;;;;;;;;;;20.40;99.90;;;;;;5043213;28;19925;-69
2023/05/09 08:30:11;;;;;;;;;;;20.30;99.90;;;;;;5047797;28;20339;-68
2023/05/09 08:32:37;;;;;;;;;;;20.20;99.90;;;;;;5045122;28;20343;-68
2023/05/09 08:35:04;;;;;;;;;;;20.50;99.90;;;;;;5058418;28;19978;-68
2023/05/09 08:37:31;;;;;;;;;;;20.60;99.90;;;;;;5058921;28;19928;-68
2023/05/09 08:39:58;;;;;;;;;;;;;;;;;;5050490;28;19959;-69
2023/05/09 08:42:27;;;;;;;;;;;21.10;99.90;;;;;;5055382;28;19982;-69
2023/05/09 08:44:54;;;;;;;;;;;21.00;99.90;;;;;;5047385;28;19947;-69
2023/05/09 08:47:21;;;;;;;;;;;21.00;99.90;;;;;;5043760;28;19925;-68
2023/05/09 08:49:48;;;;;;;;;;;20.90;99.90;;;;;;5046356;28;20342;-69
2023/05/09 08:52:15;;;;;;;;;;;21.00;99.90;;;;;;5046433;28;19960;-68
2023/05/09 08:54:42;;;;;;;;;;;21.30;99.90;;;;;;5040759;28;19976;-69
2023/05/09 08:57:09;;;;;;;;;;;21.50;99.90;;;;;;5046558;28;19925;-69
2023/05/09 08:59:40;;;;;;;;;;;21.60;99.90;;;;;;5041755;28;19924;-71
2023/05/09 09:02:07;;;;;;;;;;;21.90;99.90;;;;;;5047575;28;20374;-68
2023/05/09 09:04:34;;;;;;;;;;;22.00;99.90;;;;;;5040313;28;19925;-71
2023/05/09 09:07:01;;;;;;;;;;;21.70;99.90;;;;;;5050067;28;19924;-71
2023/05/09 09:09:27;;;;;;;;;;;21.70;99.90;;;;;;5047013;28;19933;-71
2023/05/09 09:11:54;;;;;;;;;;;21.90;99.90;;;;;;5049797;28;19985;-71
2023/05/09 09:14:24;;;;;;;;;;;21.80;99.90;;;;;;5058029;28;20384;-69
2023/05/09 09:16:52;;;;;;;;;;;21.80;99.90;;;;;;5049911;28;20384;-68
2023/05/09 09:19:20;;;;;;;;;;;21.80;99.90;;;;;;5049804;28;19931;-68
2023/05/09 09:21:49;;;;;;;;;;;21.50;99.90;;;;;;5055062;28;19924;-69
2023/05/09 09:24:20;;;;;;;;;;;21.80;99.90;;;;;;5050532;28;19929;-68
2023/05/09 09:26:48;;;;;;;;;;;22.00;99.90;;;;;;5050291;28;19925;-71
2023/05/09 09:29:15;;;;;;;;;;;22.30;99.90;;;;;;5045927;28;19943;-72
2023/05/09 09:31:44;;;;;;;;;;;22.30;99.90;;;;;;5041918;28;19932;-69
2023/05/09 09:34:12;;;;;;;;;;;22.40;99.90;;;;;;5040460;28;19947;-71
2023/05/09 09:36:39;;;;;;;;;;;22.40;99.90;;;;;;5054572;28;19936;-71
2023/05/09 09:39:06;;;;;;;;;;;21.90;99.90;;;;;;5059919;28;20351;-68
2023/05/09 09:41:33;;;;;;;;;;;22.00;99.90;;;;;;5061678;28;20465;-69
2023/05/09 09:44:06;;;;;;;;;;;22.10;99.90;;;;;;5054055;28;19931;-69
2023/05/09 09:46:40;;;;;;;;;;;22.20;99.90;;;;;;5053177;28;19928;-68
2023/05/09 09:49:09;;;;;;;;;;;22.20;99.90;;;;;;5045975;28;19983;-68
2023/05/09 09:51:37;;;;;;;;;;;21.70;99.90;;;;;;5043563;28;19925;-68
2023/05/09 09:54:05;;;;;;;;;;;21.90;99.90;;;;;;5036460;28;20285;-69
2023/05/09 09:56:39;;;;;;;;;;;21.60;99.90;;;;;;5046577;28;19940;-68
2023/05/09 09:59:10;;;;;;;;;;;21.70;99.90;;;;;;5045201;28;20019;-69
2023/05/09 10:01:52;;;;;;;;;;;21.80;99.90;;;;;;5041159;28;20340;-69
2023/05/09 10:04:19;;;;;;;;;;;22.10;99.90;;;;;;5047487;28;19929;-69
2023/05/09 10:06:53;;;;;;;;;;;22.10;99.90;;;;;;5044331;28;19929;-69
2023/05/09 10:09:20;;;;;;;;;;;22.30;99.90;;;;;;5053999;28;19924;-69
2023/05/09 10:11:49;;;;;;;;;;;22.30;99.90;;;;;;5059229;28;20396;-72
2023/05/09 10:14:16;;;;;;;;;;;22.50;99.90;;;;;;5049036;28;19929;-71
2023/05/09 10:16:43;;;;;;;;;;;22.70;99.90;;;;;;5046419;28;19933;-72
2023/05/09 10:19:10;;;;;;;;;;;22.80;99.90;;;;;;5059364;28;20388;-71
2023/05/09 10:21:38;;;;;;;;;;;22.90;99.90;;;;;;5046181;28;19925;-71
2023/05/09 10:24:07;;;;;;;;;;;22.70;99.90;;;;;;5057227;28;20384;-71
2023/05/09 10:26:37;;;;;;;;;;;22.50;99.90;;;;;;5047382;28;19925;-72
2023/05/09 10:29:07;;;;;;;;;;;22.80;99.90;;;;;;5047021;28;19925;-72
2023/05/09 10:31:35;;;;;;;;;;;22.60;99.90;;;;;;5060007;28;19932;-71
2023/05/09 10:34:04;;;;;;;;;;;22.40;99.90;;;;;;5043965;28;19933;-68
2023/05/09 10:36:31;;;;;;;;;;;22.20;99.90;;;;;;5046087;28;19933;-69
2023/05/09 10:38:58;;;;;;;;;;;;;;;;;;5058262;28;19931;-69
2023/05/09 10:41:26;;;;;;;;;;;22.70;99.90;;;;;;5053436;28;20346;-69
2023/05/09 10:43:55;;;;;;;;;;;23.20;99.90;;;;;;5058272;28;19932;-69
2023/05/09 10:46:23;;;;;;;;;;;23.50;99.90;;;;;;5048440;28;19925;-69
2023/05/09 10:48:50;;;;;;;;;;;23.50;99.90;;;;;;5046024;28;20023;-70
2023/05/09 10:51:17;;;;;;;;;;;23.30;99.90;;;;;;5060071;28;19929;-69
2023/05/09 10:53:44;;;;;;;;;;;23.00;99.90;;;;;;5058532;28;19932;-69
2023/05/09 10:56:22;;;;;;;;;;;23.00;99.90;;;;;;5049164;28;19925;-69
2023/05/09 10:58:50;;;;;;;;;;;22.80;99.90;;;;;;5048920;28;19932;-69
2023/05/09 11:01:28;;;;;;;;;;;22.50;99.90;;;;;;5056882;28;19929;-69
2023/05/09 11:03:55;;;;;;;;;;;21.90;99.90;;;;;;5052443;28;19947;-69
2023/05/09 11:06:42;;;;;;;;;;;21.80;99.90;;;;;;5060097;28;19925;-69
2023/05/09 11:09:27;;;;;;;;;;;22.00;99.90;;;;;;5063060;28;19924;-70
2023/05/09 11:11:54;;;;;;;;;;;22.40;99.90;;;;;;5052949;28;20015;-69
2023/05/09 11:14:30;;;;;;;;;;;22.40;99.90;;;;;;5055217;28;19924;-69
2023/05/09 11:16:57;;;;;;;;;;;22.10;99.90;;;;;;5053711;28;20414;-70
2023/05/09 11:19:34;;;;;;;;;;;22.20;99.90;;;;;;5059909;28;19936;-69
2023/05/09 11:22:02;;;;;;;;;;;22.60;99.90;;;;;;5061797;28;19924;-69
2023/05/09 11:24:29;;;;;;;;;;;;;;;;;;5061211;28;19939;-69
2023/05/09 11:26:56;;;;;;;;;;;22.00;99.90;;;;;;5053377;28;19925;-70
2023/05/09 11:29:26;;;;;;;;;;;21.90;99.90;;;;;;5045918;28;19933;-69
2023/05/09 11:32:07;;;;;;;;;;;21.60;99.90;;;;;;5044275;28;19925;-69
2023/05/09 11:34:34;;;;;;;;;;;21.60;99.90;;;;;;5056850;28;19928;-70
2023/05/09 11:37:09;;;;;;;;;;;21.50;99.90;;;;;;5052654;28;19924;-70
2023/05/09 11:39:36;;;;;;;;;;;21.30;99.90;;;;;;5048715;28;19937;-69
2023/05/09 11:42:04;;;;;;;;;;;21.20;99.90;;;;;;5051931;28;19925;-69
2023/05/09 11:44:32;;;;;;;;;;;20.80;99.90;;;;;;5047059;28;19925;-70
2023/05/09 11:46:58;;;;;;;;;;;20.70;99.90;;;;;;5055065;28;19925;-69
2023/05/09 11:49:27;;;;;;;;;;;20.60;99.90;;;;;;5047463;28;19932;-69
2023/05/09 11:51:54;;;;;;;;;;;20.60;99.90;;;;;;5061218;28;19928;-69
2023/05/09 11:54:23;;;;;;;;;;;20.40;99.90;;;;;;5052347;28;19936;-69
2023/05/09 11:56:50;;;;;;;;;;;20.30;99.90;;;;;;5058120;28;19928;-70
2023/05/09 11:59:17;;;;;;;;;;;20.30;99.90;;;;;;5055106;28;19925;-70
2023/05/09 12:01:44;;;;;;;;;;;20.20;99.90;;;;;;5051862;28;19929;-69
2023/05/09 12:04:11;;;;;;;;;;;20.20;99.90;;;;;;5048552;28;20362;-69
2023/05/09 12:06:40;;;;;;;;;;;20.30;99.90;;;;;;5060801;28;19925;-69
2023/05/09 12:09:09;;;;;;;;;;;20.10;99.90;;;;;;5064311;28;19924;-70
2023/05/09 12:11:36;;;;;;;;;;;20.00;99.90;;;;;;5059137;28;19932;-70
2023/05/09 12:14:02;;;;;;;;;;;20.00;99.90;;;;;;5053488;28;19924;-70
2023/05/09 12:16:29;;;;;;;;;;;19.90;99.90;;;;;;5060591;28;19929;-70
2023/05/09 12:18:56;;;;;;;;;;;20.10;99.90;;;;;;5063558;28;19924;-70
2023/05/09 12:21:23;;;;;;;;;;;20.10;99.90;;;;;;5056758;28;19928;-69
2023/05/09 12:23:55;;;;;;;;;;;20.00;99.90;;;;;;5059940;28;19924;-69
2023/05/09 12:26:22;;;;;;;;;;;19.90;99.90;;;;;;5055808;28;19974;-70
2023/05/09 12:28:50;;;;;;;;;;;19.90;99.90;;;;;;5050338;28;19924;-70
2023/05/09 12:31:17;;;;;;;;;;;19.90;99.90;;;;;;5048712;28;19928;-70
2023/05/09 12:33:44;;;;;;;;;;;19.90;99.90;;;;;;5044350;28;20311;-71
2023/05/09 12:36:12;;;;;;;;;;;19.70;99.90;;;;;;5048817;28;19940;-69
2023/05/09 12:38:39;;;;;;;;;;;19.70;99.90;;;;;;5045617;28;19967;-70
2023/05/09 12:41:07;;;;;;;;;;;19.80;99.90;;;;;;5048955;28;19924;-71
2023/05/09 12:43:36;;;;;;;;;;;19.80;99.90;;;;;;5045673;28;19933;-71
2023/05/09 12:46:03;;;;;;;;;;;19.80;99.90;;;;;;5055695;28;19928;-71
2023/05/09 12:48:31;;;;;;;;;;;19.80;99.90;;;;;;5053830;28;20338;-69
2023/05/09 12:51:02;;;;;;;;;;;19.80;99.90;;;;;;5051279;28;19925;-69
2023/05/09 12:53:30;;;;;;;;;;;19.80;99.90;;;;;;5059544;28;20023;-70
2023/05/09 12:56:01;;;;;;;;;;;19.70;99.90;;;;;;5047530;28;19924;-69
2023/05/09 12:58:31;;;;;;;;;;;19.50;99.90;;;;;;5054436;28;19928;-68
2023/05/09 13:00:58;;;;;;;;;;;19.40;99.90;;;;;;5059690;28;19972;-69
2023/05/09 13:03:26;;;;;;;;;;;19.30;99.90;;;;;;5061465;28;20339;-69
2023/05/09 13:06:00;;;;;;;;;;;19.40;99.90;;;;;;5064615;28;19925;-68
2023/05/09 13:08:26;;;;;;;;;;;19.20;99.90;;;;;;5052672;28;19928;-68
2023/05/09 13:10:53;;;;;;;;;;;19.10;99.90;;;;;;5065032;28;19929;-68
2023/05/09 13:13:21;;;;;;;;;;;18.90;99.90;;;;;;5053243;28;19928;-69
2023/05/09 13:15:50;;;;;;;;;;;19.00;99.90;;;;;;5051492;28;20004;-69
2023/05/09 13:18:17;;;;;;;;;;;18.90;99.90;;;;;;5051748;28;20396;-68
2023/05/09 13:20:43;;;;;;;;;;;18.50;99.90;;;;;;5044939;28;19975;-68
2023/05/09 13:23:10;;;;;;;;;;;18.50;99.90;;;;;;5042542;28;19952;-69
2023/05/09 13:25:37;;;;;;;;;;;18.60;99.90;;;;;;5044574;28;19925;-68
2023/05/09 13:28:04;;;;;;;;;;;18.20;99.90;;;;;;5051816;28;19925;-68
2023/05/09 13:30:33;;;;;;;;;;;18.30;99.90;;;;;;5037888;28;21911;-69
2023/05/09 13:33:01;;;;;;;;;;;18.20;99.90;;;;;;5043104;28;19925;-68
2023/05/09 13:35:28;;;;;;;;;;;18.00;99.90;;;;;;5063106;28;19925;-68
2023/05/09 13:37:57;;;;;;;;;;;18.00;99.90;;;;;;5043553;28;19926;-69
2023/05/09 13:40:23;;;;;;;;;;;17.90;99.90;;;;;;5050978;28;20324;-69
2023/05/09 13:42:50;;;;;;;;;;;18.10;99.90;;;;;;5052147;28;19924;-69
2023/05/09 13:45:17;;;;;;;;;;;18.30;99.90;;;;;;5047377;28;20350;-68
2023/05/09 13:47:44;;;;;;;;;;;18.50;99.90;;;;;;5053865;28;19933;-69
2023/05/09 13:50:12;;;;;;;;;;;18.60;99.90;;;;;;5054886;28;19924;-68
2023/05/09 13:52:39;;;;;;;;;;;18.60;99.90;;;;;;5057559;28;19925;-68
2023/05/09 13:55:06;;;;;;;;;;;18.50;99.90;;;;;;5058775;28;19952;-68
2023/05/09 13:57:33;;;;;;;;;;;18.30;99.90;;;;;;5055548;28;20346;-68
2023/05/09 14:00:00;;;;;;;;;;;18.30;99.90;;;;;;5056949;28;19924;-68
2023/05/09 14:02:26;;;;;;;;;;;18.00;99.90;;;;;;5046755;28;19924;-74
2023/05/09 14:04:53;;;;;;;;;;;18.00;99.90;;;;;;5041088;28;19932;-68
2023/05/09 14:07:21;;;;;;;;;;;17.80;99.90;;;;;;5053897;28;19924;-68
2023/05/09 14:09:49;;;;;;;;;;;17.80;99.90;;;;;;5053150;28;19924;-68
2023/05/09 14:12:16;;;;;;;;;;;17.90;99.90;;;;;;5057138;28;19974;-69
2023/05/09 14:14:43;;;;;;;;;;;17.80;99.90;;;;;;5055301;28;19925;-68
2023/05/09 14:17:09;;;;;;;;;;;17.60;99.90;;;;;;5054993;28;19968;-68
2023/05/09 14:19:36;;;;;;;;;;;17.70;99.90;;;;;;5054287;28;19925;-68
2023/05/09 14:22:03;;;;;;;;;;;17.70;99.90;;;;;;5051862;28;19959;-68
2023/05/09 14:24:32;;;;;;;;;;;17.80;99.90;;;;;;5056339;28;19925;-69